createdAt,value
2022-12-19T00:00:41.276Z,48.82
2022-12-19T00:03:31.382Z,49.09
2022-12-19T00:06:21.171Z,49.24
2022-12-19T00:09:09.762Z,49.14
2022-12-19T00:11:58.369Z,49.30
2022-12-19T00:14:47.008Z,49.19
2022-12-19T00:17:35.614Z,49.50
2022-12-19T00:20:27.338Z,49.54
2022-12-19T00:23:15.982Z,49.52
2022-12-19T00:26:13.765Z,49.50
2022-12-19T00:29:03.621Z,49.49
2022-12-19T00:31:52.346Z,49.41
2022-12-19T00:34:41.076Z,49.74
2022-12-19T00:37:31.060Z,49.64
2022-12-19T00:40:19.818Z,49.57
2022-12-19T00:43:08.414Z,49.85
2022-12-19T00:45:57.040Z,49.53
2022-12-19T00:48:45.749Z,49.80
2022-12-19T00:51:35.594Z,49.55
2022-12-19T00:54:25.792Z,49.85
2022-12-19T00:57:14.681Z,49.61
2022-12-19T01:00:03.357Z,49.47
2022-12-19T01:02:52.033Z,49.88
2022-12-19T01:05:42.041Z,49.56
2022-12-19T01:08:30.908Z,49.65
2022-12-19T01:11:41.728Z,49.49
2022-12-19T01:14:29.454Z,49.68
2022-12-19T01:17:18.084Z,49.65
2022-12-19T01:20:07.645Z,50.17
2022-12-19T01:22:56.270Z,50.03
2022-12-19T01:25:50.830Z,49.92
2022-12-19T01:28:41.222Z,50.24
2022-12-19T01:31:29.855Z,50.05
2022-12-19T01:34:18.515Z,50.18
2022-12-19T01:37:07.074Z,50.16
2022-12-19T01:39:55.700Z,50.42
2022-12-19T01:42:44.287Z,50.38
2022-12-19T01:45:37.418Z,50.26
2022-12-19T01:48:32.628Z,50.41
2022-12-19T01:51:23.698Z,50.20
2022-12-19T01:54:16.483Z,50.20
2022-12-19T01:57:08.801Z,50.46
2022-12-19T02:00:00.394Z,50.26
2022-12-19T02:02:55.402Z,50.23
2022-12-19T02:05:45.649Z,50.37
2022-12-19T02:08:34.872Z,50.17
2022-12-19T02:11:23.714Z,50.57
2022-12-19T02:14:12.384Z,49.96
2022-12-19T02:17:06.785Z,50.23
2022-12-19T02:20:22.700Z,49.98
2022-12-19T02:23:27.478Z,50.45
2022-12-19T02:26:32.339Z,50.38
2022-12-19T02:29:52.111Z,50.04
2022-12-19T02:32:50.375Z,50.03
2022-12-19T02:35:43.504Z,50.35
2022-12-19T02:38:34.180Z,50.06
2022-12-19T02:41:25.146Z,50.41
2022-12-19T02:44:17.549Z,50.08
2022-12-19T02:47:07.575Z,50.43
2022-12-19T02:49:58.243Z,50.20
2022-12-19T02:52:48.725Z,50.36
2022-12-19T02:55:43.303Z,50.55
2022-12-19T02:58:47.902Z,50.32
2022-12-19T03:01:43.207Z,50.39
2022-12-19T03:04:37.848Z,50.67
2022-12-19T03:07:32.099Z,50.53
2022-12-19T03:10:26.267Z,50.40
2022-12-19T03:13:18.542Z,50.31
2022-12-19T03:16:10.463Z,50.73
2022-12-19T03:18:59.333Z,50.51
2022-12-19T03:21:52.835Z,50.51
2022-12-19T03:24:42.991Z,50.48
2022-12-19T03:27:35.083Z,50.33
2022-12-19T03:30:23.886Z,50.30
2022-12-19T03:33:13.842Z,50.25
2022-12-19T03:36:06.676Z,50.37
2022-12-19T03:38:56.448Z,50.38
2022-12-19T03:42:04.397Z,50.31
2022-12-19T03:44:53.398Z,50.25
2022-12-19T03:47:43.912Z,50.17
2022-12-19T03:50:34.505Z,50.50
2022-12-19T03:53:34.342Z,50.37
2022-12-19T03:56:28.626Z,50.08
2022-12-19T03:59:22.052Z,50.38
2022-12-19T04:02:11.689Z,50.30
2022-12-19T04:05:03.041Z,50.27
2022-12-19T04:07:53.550Z,50.63
2022-12-19T04:10:49.249Z,50.26
2022-12-19T04:13:40.056Z,50.31
2022-12-19T04:16:33.796Z,50.47
2022-12-19T04:19:25.689Z,50.63
2022-12-19T04:22:18.074Z,50.09
2022-12-19T04:25:09.001Z,50.16
2022-12-19T04:28:02.946Z,50.35
2022-12-19T04:30:51.749Z,50.13
2022-12-19T04:33:41.761Z,50.40
2022-12-19T04:36:30.358Z,50.10
2022-12-19T04:39:18.987Z,50.19
2022-12-19T04:42:07.764Z,50.51
2022-12-19T04:44:56.464Z,50.22
2022-12-19T04:47:45.228Z,50.49
2022-12-19T04:50:36.415Z,50.40
2022-12-19T04:53:25.687Z,50.25
2022-12-19T04:56:14.426Z,50.27
2022-12-19T04:59:03.072Z,50.11
2022-12-19T05:01:51.753Z,50.14
2022-12-19T05:04:40.710Z,50.10
2022-12-19T05:07:30.741Z,50.12
2022-12-19T05:10:19.887Z,50.00
2022-12-19T05:13:09.154Z,49.98
2022-12-19T05:15:59.168Z,50.16
2022-12-19T05:18:48.165Z,49.87
2022-12-19T05:21:36.756Z,50.13
2022-12-19T05:24:26.763Z,50.18
2022-12-19T05:27:15.396Z,50.39
2022-12-19T05:30:04.039Z,50.42
2022-12-19T05:32:52.742Z,50.46
2022-12-19T05:35:41.631Z,50.12
2022-12-19T05:38:30.799Z,50.09
2022-12-19T05:41:22.068Z,50.27
2022-12-19T05:44:11.430Z,50.00
2022-12-19T05:47:00.174Z,50.06
2022-12-19T05:49:48.865Z,50.53
2022-12-19T05:52:38.153Z,50.10
2022-12-19T05:55:26.986Z,50.33
2022-12-19T05:58:16.917Z,50.28
2022-12-19T06:01:06.135Z,50.55
2022-12-19T06:03:55.837Z,50.18
2022-12-19T06:06:44.599Z,50.56
2022-12-19T06:09:33.223Z,50.25
2022-12-19T06:12:21.874Z,50.23
2022-12-19T06:15:12.813Z,50.24
2022-12-19T06:18:01.507Z,50.39
2022-12-19T06:20:57.830Z,50.51
2022-12-19T06:23:46.925Z,50.62
2022-12-19T06:26:35.544Z,50.70
2022-12-19T06:29:24.212Z,50.50
2022-12-19T06:32:14.841Z,50.55
2022-12-19T06:35:04.638Z,50.70
2022-12-19T06:37:59.334Z,50.61
2022-12-19T06:41:07.437Z,50.80
2022-12-19T06:43:59.443Z,50.51
2022-12-19T06:46:49.359Z,50.34
2022-12-19T06:49:39.398Z,50.55
2022-12-19T06:52:28.212Z,50.34
2022-12-19T06:55:17.449Z,50.48
2022-12-19T06:58:06.156Z,50.35
2022-12-19T07:00:55.067Z,50.54
2022-12-19T07:03:43.737Z,50.32
2022-12-19T07:06:33.679Z,50.44
2022-12-19T07:09:22.665Z,50.28
2022-12-19T07:12:11.389Z,50.54
2022-12-19T07:15:00.069Z,50.34
2022-12-19T07:17:48.896Z,50.50
2022-12-19T07:20:44.832Z,50.49
2022-12-19T07:23:36.237Z,50.52
2022-12-19T07:26:25.059Z,50.42
2022-12-19T07:29:14.260Z,50.40
2022-12-19T07:32:03.022Z,50.69
2022-12-19T07:34:54.963Z,50.61
2022-12-19T07:37:43.754Z,49.75
2022-12-19T07:40:34.124Z,49.12
2022-12-19T07:43:22.848Z,48.49
2022-12-19T07:46:17.642Z,47.27
2022-12-19T07:49:06.672Z,46.25
2022-12-19T07:52:11.406Z,45.24
2022-12-19T07:55:05.556Z,43.89
2022-12-19T07:57:57.663Z,44.00
2022-12-19T08:00:46.361Z,43.28
2022-12-19T08:03:35.933Z,43.40
2022-12-19T08:06:24.724Z,43.26
2022-12-19T08:09:13.919Z,43.05
2022-12-19T08:12:02.628Z,42.69
2022-12-19T08:14:56.957Z,43.12
2022-12-19T08:17:46.259Z,42.66
2022-12-19T08:20:35.122Z,42.58
2022-12-19T08:23:23.795Z,43.59
2022-12-19T08:26:14.206Z,44.88
2022-12-19T08:29:02.895Z,46.12
2022-12-19T08:31:54.179Z,46.77
2022-12-19T08:34:42.866Z,46.98
2022-12-19T08:37:31.484Z,47.04
2022-12-19T08:40:20.090Z,47.17
2022-12-19T08:43:08.749Z,47.29
2022-12-19T08:45:57.622Z,47.67
2022-12-19T08:48:47.793Z,47.25
2022-12-19T08:51:36.612Z,47.05
2022-12-19T08:54:25.255Z,45.20
2022-12-19T08:57:13.894Z,44.17
2022-12-19T09:00:02.579Z,44.54
2022-12-19T09:02:54.389Z,46.27
2022-12-19T09:05:59.966Z,45.98
2022-12-19T09:08:54.619Z,46.05
2022-12-19T09:11:49.121Z,47.16
2022-12-19T09:14:38.120Z,47.52
2022-12-19T09:17:26.705Z,47.81
2022-12-19T09:20:21.253Z,47.91
2022-12-19T09:23:13.199Z,48.17
2022-12-19T09:26:04.576Z,48.09
2022-12-19T09:28:53.759Z,47.99
2022-12-19T09:31:42.363Z,47.57
2022-12-19T09:34:37.579Z,47.76
2022-12-19T09:37:27.523Z,48.08
2022-12-19T09:40:19.022Z,47.89
2022-12-19T09:43:11.892Z,48.16
2022-12-19T09:46:05.772Z,47.93
2022-12-19T09:48:56.329Z,47.86
2022-12-19T09:51:50.021Z,47.93
2022-12-19T09:54:41.328Z,47.60
2022-12-19T09:57:39.152Z,47.17
2022-12-19T10:00:36.519Z,47.73
2022-12-19T10:03:28.311Z,47.87
2022-12-19T10:07:11.442Z,47.92
2022-12-19T10:11:44.971Z,47.89
2022-12-19T10:12:59.499Z,48.03
2022-12-19T10:15:59.068Z,48.20
2022-12-19T10:18:56.870Z,48.50
2022-12-19T10:22:17.264Z,48.18
2022-12-19T10:25:12.078Z,48.38
2022-12-19T10:28:10.191Z,48.41
2022-12-19T10:31:14.090Z,48.56
2022-12-19T10:34:16.523Z,48.47
2022-12-19T10:37:27.630Z,48.76
2022-12-19T10:40:28.537Z,48.78
2022-12-19T10:43:32.857Z,49.09
2022-12-19T10:46:31.317Z,48.97
2022-12-19T10:49:21.978Z,48.88
2022-12-19T10:52:11.910Z,48.83
2022-12-19T10:55:00.491Z,48.91
2022-12-19T10:57:49.730Z,48.76
2022-12-19T11:00:39.816Z,49.28
2022-12-19T11:03:29.067Z,47.52
2022-12-19T11:06:44.859Z,48.55
2022-12-19T11:09:37.141Z,48.73
2022-12-19T11:16:43.328Z,48.77
2022-12-19T11:20:33.033Z,49.17
2022-12-19T11:29:16.006Z,49.17
2022-12-19T11:29:27.192Z,49.39
2022-12-19T11:29:34.918Z,49.42
2022-12-19T11:30:09.515Z,49.06
2022-12-19T11:34:50.941Z,49.77
2022-12-19T11:37:42.657Z,49.52
2022-12-19T11:40:34.882Z,49.90
2022-12-19T11:43:45.757Z,49.27
2022-12-19T11:46:41.631Z,49.87
2022-12-19T11:49:33.886Z,50.30
2022-12-19T11:53:03.419Z,50.14
2022-12-19T11:55:45.786Z,50.11
2022-12-19T11:58:34.589Z,49.47
2022-12-19T12:01:36.862Z,48.44
2022-12-19T12:04:42.370Z,49.90
2022-12-19T12:08:38.053Z,49.45
2022-12-19T12:14:59.192Z,49.49
2022-12-19T12:24:44.300Z,49.27
2022-12-19T12:31:08.392Z,49.96
2022-12-19T12:31:14.620Z,49.57
2022-12-19T12:31:46.438Z,49.89
2022-12-19T12:31:50.785Z,49.85
2022-12-19T12:31:53.906Z,49.57
2022-12-19T12:35:33.128Z,50.03
2022-12-19T12:40:55.778Z,50.32
2022-12-19T12:43:51.211Z,50.29
2022-12-19T12:46:42.268Z,49.32
2022-12-19T12:49:36.883Z,50.13
2022-12-19T12:52:31.311Z,50.12
2022-12-19T12:55:25.589Z,50.27
2022-12-19T12:59:04.188Z,49.98
2022-12-19T13:01:55.286Z,49.72
2022-12-19T13:04:50.710Z,49.37
2022-12-19T13:07:44.286Z,49.76
2022-12-19T13:10:33.572Z,49.33
2022-12-19T13:13:25.885Z,50.05
2022-12-19T13:16:47.392Z,49.70
2022-12-19T13:19:39.201Z,49.19
2022-12-19T13:22:41.925Z,48.67
2022-12-19T13:25:49.548Z,48.58
2022-12-19T13:28:42.189Z,48.41
2022-12-19T13:31:37.219Z,48.21
2022-12-19T13:34:37.068Z,47.69
2022-12-19T13:39:49.599Z,47.30
2022-12-19T13:40:58.523Z,47.29
2022-12-19T13:43:49.611Z,46.88
2022-12-19T13:46:41.505Z,46.55
2022-12-19T13:49:35.048Z,46.80
2022-12-19T13:52:25.208Z,47.00
2022-12-19T13:55:15.580Z,46.45
2022-12-19T13:58:05.771Z,46.28
2022-12-19T14:00:57.037Z,46.50
2022-12-19T14:03:47.111Z,46.41
2022-12-19T14:06:44.544Z,46.22
2022-12-19T14:11:30.189Z,45.83
2022-12-19T14:13:59.391Z,46.11
2022-12-19T14:16:17.375Z,45.84
2022-12-19T14:19:06.232Z,45.94
2022-12-19T14:22:11.569Z,46.79
2022-12-19T14:25:45.107Z,45.71
2022-12-19T14:28:29.465Z,46.52
2022-12-19T14:31:19.867Z,46.41
2022-12-19T14:34:47.202Z,46.46
2022-12-19T14:38:03.081Z,46.26
2022-12-19T14:41:07.470Z,46.36
2022-12-19T14:44:00.276Z,46.55
2022-12-19T14:54:05.915Z,47.20
2022-12-19T14:54:28.610Z,48.28
2022-12-19T14:54:48.234Z,48.60
2022-12-19T14:56:59.821Z,48.41
2022-12-19T14:59:49.772Z,47.32
2022-12-19T15:02:40.032Z,46.98
2022-12-19T15:05:29.057Z,46.38
2022-12-19T15:09:01.476Z,45.95
2022-12-19T15:12:10.407Z,46.89
2022-12-19T15:15:22.250Z,48.02
2022-12-19T15:18:23.984Z,47.16
2022-12-19T15:21:14.155Z,47.09
2022-12-19T15:24:02.802Z,46.32
2022-12-19T15:26:54.693Z,46.70
2022-12-19T15:29:44.297Z,46.46
2022-12-19T15:32:34.280Z,46.62
2022-12-19T15:35:23.124Z,46.11
2022-12-19T15:38:11.821Z,46.22
2022-12-19T15:41:00.427Z,46.53
2022-12-19T15:44:05.595Z,46.73
2022-12-19T15:46:55.369Z,47.40
2022-12-19T15:49:45.471Z,46.95
2022-12-19T15:52:34.112Z,46.52
2022-12-19T15:55:24.468Z,46.26
2022-12-19T15:58:14.084Z,46.33
2022-12-19T16:01:05.024Z,46.60
2022-12-19T16:03:54.538Z,46.59
2022-12-19T16:06:44.999Z,46.69
2022-12-19T16:09:34.224Z,46.45
2022-12-19T16:12:26.921Z,46.18
2022-12-19T16:15:17.702Z,46.46
2022-12-19T16:18:06.515Z,46.09
2022-12-19T16:20:55.143Z,45.79
2022-12-19T16:23:45.187Z,46.60
2022-12-19T16:26:35.880Z,46.57
2022-12-19T16:29:26.214Z,46.23
2022-12-19T16:32:15.733Z,46.30
2022-12-19T16:35:09.474Z,46.41
2022-12-19T16:37:58.621Z,46.40
2022-12-19T16:40:49.317Z,46.28
2022-12-19T16:43:40.420Z,46.44
2022-12-19T16:46:31.036Z,46.12
2022-12-19T16:49:23.956Z,46.57
2022-12-19T16:52:13.381Z,46.03
2022-12-19T16:55:02.620Z,46.49
2022-12-19T16:57:55.157Z,46.35
2022-12-19T17:00:44.989Z,46.01
2022-12-19T17:03:36.216Z,47.01
2022-12-19T17:06:26.126Z,46.69
2022-12-19T17:09:17.072Z,46.75
2022-12-19T17:12:06.518Z,46.64
2022-12-19T17:14:56.698Z,46.46
2022-12-19T17:17:45.440Z,46.55
2022-12-19T17:20:38.597Z,46.41
2022-12-19T17:23:29.010Z,46.41
2022-12-19T17:26:18.579Z,46.90
2022-12-19T17:29:07.420Z,46.61
2022-12-19T17:31:57.691Z,46.38
2022-12-19T17:34:46.478Z,46.08
2022-12-19T17:37:35.362Z,46.64
2022-12-19T17:40:27.698Z,46.47
2022-12-19T17:43:18.175Z,46.54
2022-12-19T17:46:07.407Z,46.48
2022-12-19T17:48:57.574Z,46.63
2022-12-19T17:51:48.598Z,47.51
2022-12-19T17:54:37.501Z,47.61
2022-12-19T17:57:26.858Z,47.25
2022-12-19T18:00:16.688Z,47.47
2022-12-19T18:03:11.166Z,46.70
2022-12-19T18:06:01.372Z,46.86
2022-12-19T18:08:50.050Z,46.94
2022-12-19T18:11:42.063Z,46.62
2022-12-19T18:14:30.992Z,46.57
2022-12-19T18:17:24.475Z,46.83
2022-12-19T18:20:31.572Z,47.54
2022-12-19T18:23:24.764Z,48.11
2022-12-19T18:26:13.894Z,48.01
2022-12-19T18:29:02.610Z,48.18
2022-12-19T18:31:51.527Z,48.66
2022-12-19T18:34:40.689Z,48.34
2022-12-19T18:37:29.577Z,48.82
2022-12-19T18:40:27.537Z,48.97
2022-12-19T18:43:20.281Z,48.28
2022-12-19T18:46:11.579Z,47.54
2022-12-19T18:49:00.342Z,47.28
2022-12-19T18:51:50.172Z,47.44
2022-12-19T18:54:38.981Z,47.43
2022-12-19T18:57:29.130Z,47.59
2022-12-19T19:00:20.048Z,47.13
2022-12-19T19:03:15.196Z,46.69
2022-12-19T19:06:05.435Z,46.91
2022-12-19T19:08:56.414Z,46.73
2022-12-19T19:11:45.096Z,46.97
2022-12-19T19:14:35.181Z,46.95
2022-12-19T19:17:28.903Z,46.98
2022-12-19T19:20:18.447Z,47.51
2022-12-19T19:23:10.428Z,47.14
2022-12-19T19:25:59.018Z,47.26
2022-12-19T19:28:52.171Z,47.38
2022-12-19T19:31:45.712Z,46.90
2022-12-19T19:34:37.262Z,47.32
2022-12-19T19:37:25.914Z,47.75
2022-12-19T19:40:15.530Z,48.63
2022-12-19T19:43:04.867Z,48.80
2022-12-19T19:45:53.531Z,48.95
2022-12-19T19:48:43.709Z,49.47
2022-12-19T19:51:32.388Z,49.52
2022-12-19T19:54:21.223Z,49.41
2022-12-19T19:57:09.796Z,49.63
2022-12-19T19:59:58.491Z,49.53
2022-12-19T20:02:47.422Z,49.72
2022-12-19T20:05:37.656Z,49.47
2022-12-19T20:08:26.371Z,49.59
2022-12-19T20:11:15.057Z,48.98
2022-12-19T20:14:04.559Z,49.07
2022-12-19T20:16:53.147Z,49.60
2022-12-19T20:19:41.816Z,49.29
2022-12-19T20:22:32.102Z,49.46
2022-12-19T20:25:20.678Z,49.71
2022-12-19T20:28:09.671Z,49.01
2022-12-19T20:30:58.349Z,48.56
2022-12-19T20:33:48.277Z,48.41
2022-12-19T20:36:37.183Z,47.78
2022-12-19T20:39:27.167Z,46.88
2022-12-19T20:42:15.844Z,46.97
2022-12-19T20:45:04.628Z,46.22
2022-12-19T20:47:53.235Z,46.30
2022-12-19T20:50:43.423Z,45.99
2022-12-19T20:53:32.998Z,46.57
2022-12-19T20:56:25.810Z,47.52
2022-12-19T20:59:14.470Z,48.29
2022-12-19T21:02:03.528Z,47.77
2022-12-19T21:04:52.368Z,48.02
2022-12-19T21:07:41.052Z,47.71
2022-12-19T21:10:29.638Z,47.77
2022-12-19T21:13:19.644Z,42.02
2022-12-19T21:16:10.765Z,37.18
2022-12-19T21:18:59.501Z,38.85
2022-12-19T21:21:48.321Z,40.09
2022-12-19T21:24:36.960Z,40.78
2022-12-19T21:27:26.006Z,42.72
2022-12-19T21:30:16.348Z,42.70
2022-12-19T21:33:05.807Z,43.17
2022-12-19T21:35:54.718Z,43.32
2022-12-19T21:38:43.536Z,43.53
2022-12-19T21:41:32.759Z,43.21
2022-12-19T21:44:21.598Z,43.49
2022-12-19T21:47:11.671Z,43.25
2022-12-19T21:50:00.671Z,36.66
2022-12-19T21:52:55.632Z,34.62
2022-12-19T21:55:44.507Z,33.00
2022-12-19T21:58:33.157Z,31.74
2022-12-19T22:01:22.224Z,32.01
2022-12-19T22:04:14.941Z,33.35
2022-12-19T22:07:06.106Z,33.75
2022-12-19T22:09:54.767Z,32.71
2022-12-19T22:12:43.391Z,31.72
2022-12-19T22:15:32.141Z,31.36
2022-12-19T22:18:20.768Z,31.58
2022-12-19T22:21:12.555Z,31.72
2022-12-19T22:24:02.236Z,31.51
2022-12-19T22:26:50.851Z,31.09
2022-12-19T22:29:39.664Z,31.68
2022-12-19T22:32:28.310Z,32.46
2022-12-19T22:35:16.965Z,33.30
2022-12-19T22:38:07.037Z,33.86
2022-12-19T22:40:55.646Z,34.66
2022-12-19T22:43:44.687Z,35.40
2022-12-19T22:46:34.839Z,36.13
2022-12-19T22:49:23.468Z,36.53
2022-12-19T22:52:12.128Z,36.38
2022-12-19T22:55:02.060Z,36.55
2022-12-19T22:57:50.699Z,37.26
2022-12-19T23:00:39.417Z,37.26
2022-12-19T23:03:28.303Z,37.47
2022-12-19T23:06:17.633Z,37.45
2022-12-19T23:09:07.295Z,37.65
2022-12-19T23:11:57.544Z,38.15
2022-12-19T23:14:46.176Z,38.16
2022-12-19T23:17:34.836Z,38.29
2022-12-19T23:20:23.525Z,38.57
2022-12-19T23:23:12.411Z,38.86
2022-12-19T23:26:01.112Z,39.39
2022-12-19T23:28:54.618Z,39.51
2022-12-19T23:31:45.066Z,39.39
2022-12-19T23:34:33.922Z,39.43
2022-12-19T23:37:22.501Z,39.79
2022-12-19T23:40:12.248Z,40.18
2022-12-19T23:43:00.968Z,39.95
2022-12-19T23:45:51.145Z,40.46
2022-12-19T23:48:39.889Z,40.35
2022-12-19T23:51:29.044Z,40.52
2022-12-19T23:54:17.823Z,40.41
2022-12-19T23:57:06.576Z,41.34
2022-12-19T23:59:55.208Z,41.33
